createdAt,value
2018-06-28T00:00:01.678Z,75.40
2018-06-28T00:02:29.723Z,75.80
2018-06-28T00:04:57.753Z,75.70
2018-06-28T00:09:53.640Z,75.90
2018-06-28T00:12:25.048Z,76.00
2018-06-28T00:14:53.135Z,76.30
2018-06-28T00:17:21.181Z,76.50
2018-06-28T00:19:49.253Z,76.60
2018-06-28T00:22:17.313Z,76.70
2018-06-28T00:24:45.384Z,77.00
2018-06-28T00:27:13.492Z,77.00
2018-06-28T00:29:41.536Z,77.30
2018-06-28T00:32:09.605Z,78.50
2018-06-28T00:34:37.668Z,77.60
2018-06-28T00:37:05.710Z,78.00
2018-06-28T00:39:33.749Z,78.10
2018-06-28T00:42:01.872Z,78.50
2018-06-28T00:44:30.018Z,78.50
2018-06-28T00:46:58.208Z,78.60
2018-06-28T00:49:26.268Z,78.70
2018-06-28T00:51:54.318Z,78.80
2018-06-28T00:54:23.085Z,79.00
2018-06-28T00:56:51.828Z,79.10
2018-06-28T00:59:20.384Z,79.20
2018-06-28T01:01:48.462Z,79.30
2018-06-28T01:04:16.555Z,79.30
2018-06-28T01:06:44.630Z,79.40
2018-06-28T01:09:13.022Z,79.70
2018-06-28T01:11:41.553Z,79.90
2018-06-28T01:14:09.692Z,80.00
2018-06-28T01:16:38.065Z,80.10
2018-06-28T01:19:06.569Z,80.40
2018-06-28T01:21:34.669Z,80.40
2018-06-28T01:24:02.789Z,80.70
2018-06-28T01:26:30.834Z,80.90
2018-06-28T01:28:58.893Z,80.90
2018-06-28T01:31:26.933Z,80.90
2018-06-28T01:33:54.988Z,81.10
2018-06-28T01:36:23.102Z,81.30
2018-06-28T01:38:51.144Z,81.20
2018-06-28T01:41:19.174Z,81.20
2018-06-28T01:43:47.733Z,81.30
2018-06-28T01:46:16.737Z,81.20
2018-06-28T01:51:12.899Z,81.30
2018-06-28T01:53:41.130Z,82.20
2018-06-28T01:56:09.185Z,82.20
2018-06-28T01:58:37.222Z,81.70
2018-06-28T02:01:05.284Z,81.80
2018-06-28T02:03:33.325Z,81.80
2018-06-28T02:06:01.368Z,81.80
2018-06-28T02:10:57.257Z,81.80
2018-06-28T02:13:25.402Z,81.80
2018-06-28T02:15:53.445Z,81.80
2018-06-28T02:18:21.497Z,81.80
2018-06-28T02:20:49.545Z,81.90
2018-06-28T02:23:17.613Z,82.10
2018-06-28T02:25:45.689Z,82.20
2018-06-28T02:28:13.737Z,82.20
2018-06-28T02:30:41.845Z,82.40
2018-06-28T02:33:09.877Z,82.60
2018-06-28T02:35:37.975Z,82.50
2018-06-28T02:38:06.667Z,82.80
2018-06-28T02:40:34.784Z,83.00
2018-06-28T02:43:02.839Z,83.10
2018-06-28T02:45:30.864Z,83.40
2018-06-28T02:47:58.958Z,83.50
2018-06-28T02:50:27.057Z,83.70
2018-06-28T02:52:55.101Z,83.80
2018-06-28T02:55:23.173Z,83.80
2018-06-28T02:57:51.256Z,83.90
2018-06-28T03:02:47.156Z,84.10
2018-06-28T03:05:15.201Z,84.00
2018-06-28T03:07:43.245Z,84.10
2018-06-28T03:10:11.341Z,84.30
2018-06-28T03:12:39.401Z,84.20
2018-06-28T03:15:07.534Z,84.20
2018-06-28T03:17:35.573Z,84.40
2018-06-28T03:20:03.634Z,84.40
2018-06-28T03:22:31.693Z,84.50
2018-06-28T03:24:59.736Z,84.40
2018-06-28T03:27:27.768Z,84.50
2018-06-28T03:29:55.825Z,84.30
2018-06-28T03:32:23.888Z,84.30
2018-06-28T03:34:51.930Z,84.30
2018-06-28T03:37:19.976Z,84.30
2018-06-28T03:39:48.021Z,84.20
2018-06-28T03:42:16.057Z,84.20
2018-06-28T03:44:44.129Z,84.10
2018-06-28T03:47:12.180Z,84.30
2018-06-28T03:52:08.157Z,84.50
2018-06-28T03:54:36.181Z,84.40
2018-06-28T03:57:04.253Z,84.20
2018-06-28T03:59:32.321Z,84.10
2018-06-28T04:02:00.391Z,83.70
2018-06-28T04:04:28.459Z,83.40
2018-06-28T04:06:56.495Z,83.10
2018-06-28T04:09:24.650Z,83.10
2018-06-28T04:14:20.645Z,83.70
2018-06-28T04:16:48.691Z,83.20
2018-06-28T04:19:16.741Z,83.10
2018-06-28T04:21:45.413Z,83.00
2018-06-28T04:24:13.457Z,82.80
2018-06-28T04:26:41.501Z,82.60
2018-06-28T04:29:09.538Z,82.50
2018-06-28T04:31:37.662Z,82.50
2018-06-28T04:36:33.589Z,82.50
2018-06-28T04:41:29.602Z,82.90
2018-06-28T04:43:57.720Z,82.40
2018-06-28T04:46:25.793Z,82.30
2018-06-28T04:51:21.743Z,81.40
2018-06-28T04:53:49.779Z,81.90
2018-06-28T04:56:17.867Z,81.80
2018-06-28T04:58:45.911Z,81.50
2018-06-28T05:01:14.115Z,81.20
2018-06-28T05:03:42.157Z,81.20
2018-06-28T05:06:10.269Z,81.20
2018-06-28T05:08:38.376Z,80.70
2018-06-28T05:16:02.977Z,80.30
2018-06-28T05:18:31.064Z,79.90
2018-06-28T05:20:59.196Z,80.00
2018-06-28T05:23:27.373Z,80.20
2018-06-28T05:25:55.475Z,79.60
2018-06-28T05:28:23.510Z,79.70
2018-06-28T05:30:51.557Z,79.50
2018-06-28T05:33:19.621Z,78.80
2018-06-28T05:35:47.673Z,78.60
2018-06-28T05:38:15.785Z,78.30
2018-06-28T05:40:43.937Z,78.10
2018-06-28T05:43:12.050Z,78.00
2018-06-28T05:45:40.105Z,77.90
2018-06-28T05:48:08.229Z,78.00
2018-06-28T05:50:36.267Z,77.60
2018-06-28T05:53:04.324Z,77.90
2018-06-28T05:55:32.370Z,77.50
2018-06-28T05:58:00.413Z,78.40
2018-06-28T06:00:28.501Z,77.60
2018-06-28T06:02:56.560Z,77.20
2018-06-28T06:05:24.593Z,76.80
2018-06-28T06:07:52.661Z,77.00
2018-06-28T06:10:20.788Z,76.30
2018-06-28T06:12:48.805Z,76.20
2018-06-28T06:15:16.907Z,76.10
2018-06-28T06:17:45.001Z,75.80
2018-06-28T06:20:13.084Z,75.90
2018-06-28T06:22:41.229Z,75.90
2018-06-28T06:25:09.311Z,76.00
2018-06-28T06:27:37.389Z,75.70
2018-06-28T06:30:06.224Z,75.60
2018-06-28T06:32:34.322Z,75.30
2018-06-28T06:35:02.349Z,75.90
2018-06-28T06:37:30.384Z,75.00
2018-06-28T06:39:58.474Z,75.40
2018-06-28T06:42:26.517Z,75.40
2018-06-28T06:44:54.776Z,75.50
2018-06-28T06:47:22.837Z,75.50
2018-06-28T06:49:51.020Z,74.60
2018-06-28T06:52:19.506Z,74.80
2018-06-28T06:54:47.630Z,74.20
2018-06-28T06:57:15.701Z,72.70
2018-06-28T06:59:43.757Z,72.30
2018-06-28T07:02:11.808Z,72.10
2018-06-28T07:04:39.919Z,70.70
2018-06-28T07:07:07.945Z,70.10
2018-06-28T07:09:35.989Z,70.00
2018-06-28T07:12:04.053Z,69.20
2018-06-28T07:14:32.114Z,67.70
2018-06-28T07:17:00.157Z,67.20
2018-06-28T07:19:28.209Z,67.20
2018-06-28T07:21:56.276Z,65.60
2018-06-28T07:24:24.333Z,65.10
2018-06-28T07:26:52.517Z,65.40
2018-06-28T07:29:20.579Z,64.80
2018-06-28T07:31:48.675Z,63.80
2018-06-28T07:34:16.722Z,63.00
2018-06-28T07:36:44.749Z,62.70
2018-06-28T07:39:13.619Z,61.30
2018-06-28T07:41:41.658Z,60.60
2018-06-28T07:44:10.232Z,60.40
2018-06-28T07:46:38.409Z,57.80
2018-06-28T07:49:06.527Z,56.30
2018-06-28T07:51:34.569Z,55.70
2018-06-28T07:54:02.838Z,54.10
2018-06-28T07:56:30.893Z,52.20
2018-06-28T07:58:58.968Z,50.40
2018-06-28T08:01:27.021Z,49.20
2018-06-28T08:03:55.076Z,49.30
2018-06-28T08:08:51.000Z,46.60
2018-06-28T08:11:24.201Z,45.10
2018-06-28T08:13:52.259Z,44.40
2018-06-28T08:16:20.312Z,44.20
2018-06-28T08:18:48.493Z,42.90
2018-06-28T08:21:16.557Z,44.00
2018-06-28T08:23:44.592Z,43.10
2018-06-28T08:26:12.629Z,42.60
2018-06-28T08:28:40.689Z,41.80
2018-06-28T08:31:08.736Z,39.90
2018-06-28T08:33:36.773Z,40.70
2018-06-28T08:36:04.886Z,40.60
2018-06-28T08:38:32.945Z,40.70
2018-06-28T08:41:01.052Z,41.10
2018-06-28T08:43:29.131Z,40.40
2018-06-28T08:45:57.207Z,39.20
2018-06-28T08:48:25.253Z,39.10
2018-06-28T08:50:53.330Z,39.80
2018-06-28T08:53:21.392Z,39.90
2018-06-28T08:55:49.426Z,38.80
2018-06-28T08:58:17.553Z,38.70
2018-06-28T09:00:45.561Z,38.30
2018-06-28T09:03:13.594Z,39.30
2018-06-28T09:05:41.721Z,38.80
2018-06-28T09:08:09.722Z,39.00
2018-06-28T09:10:37.774Z,39.00
2018-06-28T09:13:05.829Z,39.80
2018-06-28T09:15:33.905Z,38.70
2018-06-28T09:18:01.938Z,38.60
2018-06-28T09:20:29.996Z,37.80
2018-06-28T09:22:58.088Z,38.30
2018-06-28T09:25:26.105Z,37.30
2018-06-28T09:27:54.212Z,36.80
2018-06-28T09:30:22.270Z,37.00
2018-06-28T09:32:50.310Z,37.00
2018-06-28T09:35:18.397Z,36.00
2018-06-28T09:37:46.441Z,36.30
2018-06-28T09:40:14.473Z,36.30
2018-06-28T09:42:42.569Z,35.70
2018-06-28T09:45:10.611Z,35.90
2018-06-28T09:47:38.665Z,34.80
2018-06-28T09:50:06.917Z,33.80
2018-06-28T09:52:35.194Z,33.70
2018-06-28T09:55:03.237Z,34.00
2018-06-28T09:57:31.281Z,34.30
2018-06-28T09:59:59.364Z,34.70
2018-06-28T10:02:27.421Z,35.00
2018-06-28T10:04:55.481Z,34.40
2018-06-28T10:07:23.621Z,35.00
2018-06-28T10:09:51.779Z,33.90
2018-06-28T10:14:47.694Z,33.40
2018-06-28T10:17:15.780Z,32.90
2018-06-28T10:19:43.862Z,32.80
2018-06-28T10:22:11.888Z,32.60
2018-06-28T10:24:39.955Z,32.90
2018-06-28T10:27:07.989Z,32.60
2018-06-28T10:29:36.046Z,32.60
2018-06-28T10:32:04.097Z,33.20
2018-06-28T10:34:32.261Z,33.80
2018-06-28T10:37:00.292Z,33.60
2018-06-28T10:39:28.501Z,33.90
2018-06-28T10:41:56.577Z,34.10
2018-06-28T10:44:24.654Z,32.90
2018-06-28T10:46:53.017Z,32.30
2018-06-28T10:49:21.207Z,31.50
2018-06-28T10:51:52.056Z,31.80
2018-06-28T10:54:20.589Z,31.20
2018-06-28T10:56:48.627Z,32.00
2018-06-28T10:59:16.868Z,31.70
2018-06-28T11:01:45.051Z,32.70
2018-06-28T11:04:13.152Z,31.10
2018-06-28T11:06:41.214Z,31.30
2018-06-28T11:09:10.274Z,31.40
2018-06-28T11:11:38.957Z,30.20
2018-06-28T11:14:07.045Z,30.10
2018-06-28T11:16:35.153Z,30.00
2018-06-28T11:19:03.267Z,30.60
2018-06-28T11:21:31.689Z,31.50
2018-06-28T11:23:59.808Z,32.10
2018-06-28T11:26:27.885Z,30.30
2018-06-28T11:28:55.985Z,30.60
2018-06-28T11:31:24.037Z,30.20
2018-06-28T11:33:52.113Z,30.00
2018-06-28T11:36:20.292Z,30.00
2018-06-28T11:38:48.714Z,31.00
2018-06-28T11:41:16.865Z,31.30
2018-06-28T11:43:48.376Z,31.30
2018-06-28T11:46:16.464Z,32.10
2018-06-28T11:48:44.585Z,31.80
2018-06-28T11:51:12.658Z,31.30
2018-06-28T11:53:40.814Z,32.10
2018-06-28T11:56:08.997Z,31.40
2018-06-28T11:58:37.141Z,31.30
2018-06-28T12:01:05.248Z,32.70
2018-06-28T12:03:33.423Z,31.20
2018-06-28T12:06:01.616Z,30.60
2018-06-28T12:08:29.745Z,31.00
2018-06-28T12:10:57.849Z,31.30
2018-06-28T12:13:26.131Z,31.10
2018-06-28T12:15:54.450Z,31.20
2018-06-28T12:18:22.573Z,31.20
2018-06-28T12:23:18.517Z,30.70
2018-06-28T12:25:46.582Z,31.40
2018-06-28T12:28:14.625Z,32.10
2018-06-28T12:30:42.665Z,32.30
2018-06-28T12:33:10.749Z,32.70
2018-06-28T12:35:38.884Z,32.90
2018-06-28T12:38:06.921Z,33.00
2018-06-28T12:40:35.053Z,33.30
2018-06-28T12:43:07.482Z,33.20
2018-06-28T12:45:36.119Z,33.00
2018-06-28T12:48:09.469Z,33.00
2018-06-28T12:50:43.149Z,33.40
2018-06-28T12:56:51.284Z,34.50
2018-06-28T12:59:20.715Z,33.10
2018-06-28T13:01:49.159Z,33.20
2018-06-28T13:04:17.260Z,33.30
2018-06-28T13:06:45.292Z,33.20
2018-06-28T13:09:14.668Z,33.10
2018-06-28T13:11:42.836Z,33.20
2018-06-28T13:14:14.338Z,33.40
2018-06-28T13:16:42.385Z,33.90
2018-06-28T13:19:10.447Z,33.40
2018-06-28T13:21:38.488Z,33.30
2018-06-28T13:24:06.570Z,33.50
2018-06-28T13:26:34.613Z,33.30
2018-06-28T13:29:02.685Z,33.20
2018-06-28T13:31:30.796Z,33.20
2018-06-28T13:33:59.180Z,34.10
2018-06-28T13:36:28.444Z,33.50
2018-06-28T13:38:58.437Z,33.50
2018-06-28T13:41:26.708Z,34.00
2018-06-28T13:46:23.391Z,34.20
2018-06-28T13:48:51.405Z,33.80
2018-06-28T13:51:19.481Z,34.00
2018-06-28T13:53:47.552Z,33.30
2018-06-28T13:56:15.677Z,33.80
2018-06-28T13:58:43.737Z,33.50
2018-06-28T14:01:11.784Z,33.90
2018-06-28T14:15:02.986Z,34.20
2018-06-28T14:17:31.035Z,35.00
2018-06-28T14:19:59.108Z,34.80
2018-06-28T14:22:27.160Z,35.00
2018-06-28T14:24:55.188Z,35.60
2018-06-28T14:27:23.246Z,36.00
2018-06-28T14:29:51.309Z,36.00
2018-06-28T14:32:19.347Z,35.90
2018-06-28T14:34:47.479Z,35.50
2018-06-28T14:37:18.326Z,35.40
2018-06-28T14:39:46.662Z,35.90
2018-06-28T14:42:15.161Z,35.80
2018-06-28T14:44:43.234Z,35.60
2018-06-28T14:47:11.962Z,35.20
2018-06-28T14:49:40.151Z,35.50
2018-06-28T14:54:36.169Z,35.70
2018-06-28T14:57:04.450Z,36.20
2018-06-28T14:59:33.204Z,35.70
2018-06-28T15:02:01.345Z,36.30
2018-06-28T15:06:57.313Z,37.10
2018-06-28T15:09:25.368Z,36.60
2018-06-28T15:11:53.461Z,36.50
2018-06-28T15:14:23.119Z,36.80
2018-06-28T15:16:51.210Z,36.80
2018-06-28T15:19:19.261Z,37.20
2018-06-28T15:21:47.294Z,37.50
2018-06-28T15:24:15.382Z,37.50
2018-06-28T15:26:43.572Z,37.10
2018-06-28T15:29:12.948Z,37.60
2018-06-28T15:31:41.069Z,38.50
2018-06-28T15:34:10.318Z,39.20
2018-06-28T15:36:38.362Z,39.10
2018-06-28T15:39:08.005Z,39.30
2018-06-28T15:41:36.294Z,39.30
2018-06-28T15:44:04.421Z,40.40
2018-06-28T15:46:32.813Z,39.90
2018-06-28T15:49:00.880Z,40.10
2018-06-28T15:51:29.001Z,40.10
2018-06-28T15:53:57.045Z,40.60
2018-06-28T15:56:25.454Z,41.20
2018-06-28T15:58:53.481Z,40.40
2018-06-28T16:01:21.709Z,40.40
2018-06-28T16:03:50.067Z,40.60
2018-06-28T16:06:18.141Z,40.50
2018-06-28T16:08:46.201Z,40.60
2018-06-28T16:11:14.339Z,41.10
2018-06-28T16:13:42.409Z,41.20
2018-06-28T16:16:10.453Z,40.70
2018-06-28T16:18:38.525Z,40.70
2018-06-28T16:21:07.637Z,41.30
2018-06-28T16:23:35.897Z,40.40
2018-06-28T16:26:03.961Z,40.10
2018-06-28T16:28:32.280Z,40.20
2018-06-28T16:31:00.321Z,40.00
2018-06-28T16:33:28.526Z,40.60
2018-06-28T16:35:56.588Z,40.90
2018-06-28T16:38:24.665Z,41.20
2018-06-28T16:40:52.711Z,41.10
2018-06-28T16:43:21.372Z,41.20
2018-06-28T16:45:49.474Z,41.40
2018-06-28T16:48:17.605Z,41.30
2018-06-28T16:50:45.727Z,41.30
2018-06-28T16:53:13.804Z,40.80
2018-06-28T16:55:42.058Z,41.20
2018-06-28T16:58:10.845Z,40.00
2018-06-28T17:00:39.589Z,39.60
2018-06-28T17:03:07.961Z,40.30
2018-06-28T17:05:36.036Z,40.30
2018-06-28T17:08:04.308Z,40.60
2018-06-28T17:10:32.330Z,40.60
2018-06-28T17:13:00.481Z,41.50
2018-06-28T17:15:28.523Z,41.20
2018-06-28T17:17:57.056Z,40.70
2018-06-28T17:20:26.348Z,40.90
2018-06-28T17:22:54.367Z,40.60
2018-06-28T17:25:22.398Z,40.60
2018-06-28T17:27:50.458Z,40.80
2018-06-28T17:30:18.536Z,41.00
2018-06-28T17:32:46.695Z,40.90
2018-06-28T17:35:15.043Z,41.30
2018-06-28T17:37:43.086Z,44.80
2018-06-28T17:40:11.195Z,48.30
2018-06-28T17:42:39.298Z,48.70
2018-06-28T17:45:07.397Z,48.90
2018-06-28T17:47:35.481Z,49.40
2018-06-28T17:50:03.618Z,49.40
2018-06-28T17:52:31.662Z,49.90
2018-06-28T17:54:59.877Z,50.00
2018-06-28T17:57:27.921Z,48.30
2018-06-28T17:59:56.289Z,47.60
2018-06-28T18:02:25.009Z,47.40
2018-06-28T18:04:53.186Z,47.10
2018-06-28T18:07:23.604Z,47.30
2018-06-28T18:09:51.733Z,47.80
2018-06-28T18:12:19.789Z,48.20
2018-06-28T18:17:15.772Z,48.30
2018-06-28T18:19:43.835Z,48.30
2018-06-28T18:22:11.882Z,48.50
2018-06-28T18:27:07.855Z,48.60
2018-06-28T18:29:36.243Z,48.60
2018-06-28T18:32:04.808Z,48.70
2018-06-28T18:34:32.869Z,49.10
2018-06-28T18:37:00.989Z,48.70
2018-06-28T18:39:29.037Z,49.20
2018-06-28T18:44:25.622Z,48.80
2018-06-28T18:46:55.304Z,48.70
2018-06-28T18:49:23.719Z,48.90
2018-06-28T18:51:51.776Z,49.20
2018-06-28T18:54:24.815Z,49.70
2018-06-28T18:56:53.149Z,50.20
2018-06-28T18:59:21.188Z,50.90
2018-06-28T19:01:49.278Z,50.80
2018-06-28T19:04:17.846Z,50.70
2018-06-28T19:06:46.008Z,51.00
2018-06-28T19:09:14.072Z,51.30
2018-06-28T19:11:42.240Z,51.50
2018-06-28T19:14:15.822Z,51.40
2018-06-28T19:16:49.513Z,52.20
2018-06-28T19:19:17.585Z,52.20
2018-06-28T19:24:19.233Z,52.60
2018-06-28T19:26:48.193Z,52.60
2018-06-28T19:29:21.862Z,52.80
2018-06-28T19:31:55.645Z,52.90
2018-06-28T19:34:23.737Z,52.90
2018-06-28T19:36:51.867Z,53.40
2018-06-28T19:39:25.461Z,53.30
2018-06-28T19:41:59.041Z,53.60
2018-06-28T19:44:27.077Z,53.60
2018-06-28T19:47:03.381Z,53.70
2018-06-28T19:49:36.985Z,54.00
2018-06-28T19:52:10.492Z,54.30
2018-06-28T19:54:38.564Z,54.60
2018-06-28T19:57:07.438Z,55.30
2018-06-28T19:59:44.156Z,55.00
2018-06-28T20:02:17.769Z,55.40
2018-06-28T20:04:46.368Z,55.60
2018-06-28T20:07:14.504Z,56.00
2018-06-28T20:09:42.971Z,56.30
2018-06-28T20:12:16.376Z,56.60
2018-06-28T20:17:23.138Z,57.20
2018-06-28T20:19:56.561Z,57.30
2018-06-28T20:22:24.637Z,57.60
2018-06-28T20:28:27.965Z,58.10
2018-06-28T20:31:01.694Z,58.10
2018-06-28T20:33:35.326Z,58.30
2018-06-28T20:36:03.409Z,58.40
2018-06-28T20:38:31.770Z,58.60
2018-06-28T20:41:00.128Z,58.70
2018-06-28T20:43:28.892Z,58.90
2018-06-28T20:45:57.024Z,59.00
2018-06-28T20:48:25.110Z,59.00
2018-06-28T20:50:53.191Z,59.20
2018-06-28T20:53:21.221Z,60.00
2018-06-28T20:55:49.372Z,59.70
2018-06-28T20:58:17.409Z,59.80
2018-06-28T21:00:45.508Z,59.80
2018-06-28T21:03:13.565Z,60.00
2018-06-28T21:05:47.911Z,60.10
2018-06-28T21:08:17.874Z,60.00
2018-06-28T21:10:45.998Z,60.30
2018-06-28T21:13:14.691Z,60.40
2018-06-28T21:15:46.342Z,60.70
2018-06-28T21:20:42.298Z,61.20
2018-06-28T21:23:10.360Z,61.30
2018-06-28T21:25:38.474Z,61.00
2018-06-28T21:28:06.985Z,61.00
2018-06-28T21:30:35.036Z,61.10
2018-06-28T21:33:04.354Z,61.30
2018-06-28T21:35:33.129Z,61.60
2018-06-28T21:38:01.640Z,61.90
2018-06-28T21:40:30.159Z,62.30
2018-06-28T21:42:58.536Z,62.50
2018-06-28T21:45:26.585Z,63.60
2018-06-28T21:47:54.687Z,63.10
2018-06-28T21:50:22.749Z,63.30
2018-06-28T21:52:50.813Z,63.60
2018-06-28T21:55:18.958Z,63.70
2018-06-28T21:57:46.941Z,64.00
2018-06-28T22:00:25.404Z,64.10
2018-06-28T22:02:53.513Z,64.20
2018-06-28T22:05:21.548Z,64.20
2018-06-28T22:07:49.722Z,64.20
2018-06-28T22:10:17.807Z,64.10
2018-06-28T22:12:46.089Z,64.30
2018-06-28T22:15:19.207Z,64.40
2018-06-28T22:17:47.413Z,65.40
2018-06-28T22:20:15.481Z,64.80
2018-06-28T22:22:43.500Z,64.70
2018-06-28T22:25:11.571Z,64.30
2018-06-28T22:27:39.709Z,64.10
2018-06-28T22:30:08.599Z,63.90
2018-06-28T22:32:36.856Z,63.90
2018-06-28T22:35:05.065Z,63.70
2018-06-28T22:37:33.094Z,63.90
2018-06-28T22:40:01.145Z,64.10
2018-06-28T22:42:29.220Z,64.40
2018-06-28T22:44:57.305Z,64.90
2018-06-28T22:47:25.337Z,65.00
2018-06-28T22:49:59.905Z,64.80
2018-06-28T22:52:28.228Z,65.00
2018-06-28T22:54:57.085Z,64.90
2018-06-28T22:57:25.477Z,65.30
2018-06-28T22:59:53.772Z,65.40
2018-06-28T23:02:21.841Z,65.70
2018-06-28T23:04:49.880Z,66.10
2018-06-28T23:07:18.027Z,66.60
2018-06-28T23:09:46.121Z,66.80
2018-06-28T23:12:14.515Z,67.10
2018-06-28T23:14:42.593Z,67.30
2018-06-28T23:17:11.006Z,67.50
2018-06-28T23:19:39.041Z,67.80
2018-06-28T23:22:07.453Z,68.00
2018-06-28T23:24:37.840Z,68.40
2018-06-28T23:27:06.035Z,68.50
2018-06-28T23:29:34.036Z,68.70
2018-06-28T23:32:02.094Z,68.80
2018-06-28T23:34:30.149Z,69.00
2018-06-28T23:36:58.177Z,69.00
2018-06-28T23:39:26.233Z,69.20
2018-06-28T23:41:54.293Z,69.60
2018-06-28T23:44:22.319Z,69.90
2018-06-28T23:49:18.284Z,70.20
2018-06-28T23:54:14.249Z,71.00
2018-06-28T23:56:42.309Z,71.50
2018-06-28T23:59:10.356Z,71.80
